createdAt,value
2023-12-23T00:00:45.445Z,58.24
2023-12-23T00:01:45.429Z,58.64
2023-12-23T00:02:45.486Z,59.94
2023-12-23T00:03:45.655Z,58.31
2023-12-23T00:04:45.665Z,57.70
2023-12-23T00:05:45.718Z,57.23
2023-12-23T00:06:45.710Z,57.97
2023-12-23T00:07:45.881Z,58.16
2023-12-23T00:08:45.881Z,57.98
2023-12-23T00:09:45.988Z,58.27
2023-12-23T00:10:45.990Z,56.92
2023-12-23T00:11:46.079Z,59.32
2023-12-23T00:12:46.141Z,57.48
2023-12-23T00:13:46.257Z,58.19
2023-12-23T00:14:46.242Z,55.33
2023-12-23T00:15:46.279Z,56.73
2023-12-23T00:16:46.351Z,56.60
2023-12-23T00:17:50.294Z,57.61
2023-12-23T00:18:46.509Z,57.66
2023-12-23T00:19:46.551Z,57.64
2023-12-23T00:20:46.662Z,57.74
2023-12-23T00:21:46.444Z,57.31
2023-12-23T00:22:46.449Z,60.33
2023-12-23T00:23:46.454Z,57.91
2023-12-23T00:24:46.443Z,58.72
2023-12-23T00:25:46.433Z,59.20
2023-12-23T00:26:46.433Z,60.57
2023-12-23T00:27:46.665Z,61.12
2023-12-23T00:28:46.532Z,61.51
2023-12-23T00:29:46.440Z,59.33
2023-12-23T00:30:46.541Z,58.21
2023-12-23T00:31:46.506Z,58.86
2023-12-23T00:32:46.528Z,57.55
2023-12-23T00:33:46.508Z,59.46
2023-12-23T00:34:46.493Z,59.72
2023-12-23T00:35:46.462Z,60.06
2023-12-23T00:36:46.471Z,61.34
2023-12-23T00:37:46.687Z,58.33
2023-12-23T00:38:46.510Z,60.50
2023-12-23T00:39:46.578Z,59.17
2023-12-23T00:40:46.681Z,57.71
2023-12-23T00:41:46.722Z,58.87
2023-12-23T00:42:46.785Z,58.17
2023-12-23T00:43:46.942Z,56.11
2023-12-23T00:44:46.947Z,56.44
2023-12-23T00:45:47.010Z,58.24
2023-12-23T00:46:47.022Z,57.84
2023-12-23T00:47:47.142Z,58.80
2023-12-23T00:48:47.238Z,57.80
2023-12-23T00:49:47.251Z,56.75
2023-12-23T00:50:47.287Z,57.90
2023-12-23T00:51:47.314Z,58.11
2023-12-23T00:52:47.434Z,57.41
2023-12-23T00:53:49.221Z,58.39
2023-12-23T00:54:47.521Z,58.36
2023-12-23T00:55:47.644Z,56.94
2023-12-23T00:56:47.640Z,58.18
2023-12-23T00:57:47.975Z,60.65
2023-12-23T00:58:47.824Z,58.24
2023-12-23T00:59:47.868Z,58.10
2023-12-23T01:00:47.885Z,59.25
2023-12-23T01:01:47.959Z,59.63
2023-12-23T01:02:48.001Z,60.53
2023-12-23T01:03:48.107Z,62.11
2023-12-23T01:04:48.160Z,59.32
2023-12-23T01:05:48.204Z,59.25
2023-12-23T01:06:48.281Z,59.50
2023-12-23T01:07:48.543Z,59.03
2023-12-23T01:08:48.388Z,60.45
2023-12-23T01:09:48.438Z,59.34
2023-12-23T01:10:48.478Z,59.61
2023-12-23T01:11:48.554Z,60.47
2023-12-23T01:12:48.628Z,62.53
2023-12-23T01:13:48.689Z,59.28
2023-12-23T01:14:48.735Z,58.02
2023-12-23T01:15:48.822Z,61.47
2023-12-23T01:16:48.915Z,60.63
2023-12-23T01:17:49.157Z,60.19
2023-12-23T01:18:49.094Z,58.80
2023-12-23T01:19:49.089Z,61.04
2023-12-23T01:20:49.077Z,62.03
2023-12-23T01:21:49.149Z,61.27
2023-12-23T01:22:49.221Z,60.11
2023-12-23T01:23:49.258Z,60.71
2023-12-23T01:24:49.349Z,60.89
2023-12-23T01:25:49.390Z,60.71
2023-12-23T01:26:49.404Z,59.82
2023-12-23T01:27:49.823Z,59.86
2023-12-23T01:28:49.579Z,59.81
2023-12-23T01:29:49.598Z,59.94
2023-12-23T01:30:49.704Z,61.06
2023-12-23T01:31:49.725Z,60.42
2023-12-23T01:32:49.812Z,61.36
2023-12-23T01:33:49.911Z,58.88
2023-12-23T01:34:49.882Z,61.91
2023-12-23T01:35:49.947Z,59.48
2023-12-23T01:36:49.989Z,62.51
2023-12-23T01:37:50.331Z,62.44
2023-12-23T01:38:50.111Z,62.10
2023-12-23T01:39:50.233Z,61.18
2023-12-23T01:40:50.251Z,61.29
2023-12-23T01:41:50.299Z,60.90
2023-12-23T01:42:50.302Z,61.05
2023-12-23T01:43:50.422Z,61.89
2023-12-23T01:44:50.460Z,61.47
2023-12-23T01:45:50.533Z,63.34
2023-12-23T01:46:50.581Z,62.24
2023-12-23T01:47:50.863Z,63.74
2023-12-23T01:48:50.656Z,62.68
2023-12-23T01:49:50.782Z,63.25
2023-12-23T01:50:50.757Z,61.94
2023-12-23T01:51:50.803Z,63.37
2023-12-23T01:52:51.015Z,64.00
2023-12-23T01:53:50.958Z,63.60
2023-12-23T01:54:50.989Z,62.21
2023-12-23T01:55:51.073Z,62.38
2023-12-23T01:56:51.121Z,63.45
2023-12-23T01:57:51.350Z,63.26
2023-12-23T01:58:51.237Z,61.96
2023-12-23T01:59:51.399Z,62.62
2023-12-23T02:00:51.397Z,64.81
2023-12-23T02:01:51.431Z,63.92
2023-12-23T02:02:51.902Z,62.08
2023-12-23T02:03:51.566Z,63.83
2023-12-23T02:04:51.600Z,64.00
2023-12-23T02:05:51.726Z,64.20
2023-12-23T02:06:51.628Z,63.77
2023-12-23T02:07:51.732Z,64.44
2023-12-23T02:08:51.738Z,63.51
2023-12-23T02:09:51.822Z,64.75
2023-12-23T02:10:51.876Z,63.82
2023-12-23T02:11:51.912Z,65.00
2023-12-23T02:12:58.578Z,63.51
2023-12-23T02:13:52.997Z,63.58
2023-12-23T02:14:51.958Z,63.66
2023-12-23T02:15:51.973Z,63.71
2023-12-23T02:16:51.975Z,63.34
2023-12-23T02:17:52.141Z,61.87
2023-12-23T02:18:52.021Z,65.84
2023-12-23T02:19:51.982Z,62.20
2023-12-23T02:20:51.929Z,64.17
2023-12-23T02:21:51.931Z,64.83
2023-12-23T02:22:52.241Z,63.97
2023-12-23T02:23:52.068Z,62.42
2023-12-23T02:24:51.944Z,63.76
2023-12-23T02:25:52.029Z,61.81
2023-12-23T02:26:52.063Z,64.50
2023-12-23T02:27:52.165Z,63.51
2023-12-23T02:28:52.164Z,62.72
2023-12-23T02:29:52.233Z,63.50
2023-12-23T02:30:52.291Z,63.68
2023-12-23T02:31:52.347Z,63.07
2023-12-23T02:32:52.640Z,62.74
2023-12-23T02:33:52.395Z,62.53
2023-12-23T02:34:52.460Z,63.22
2023-12-23T02:35:52.487Z,62.39
2023-12-23T02:36:52.541Z,63.04
2023-12-23T02:37:52.675Z,63.09
2023-12-23T02:38:52.669Z,62.86
2023-12-23T02:39:52.746Z,61.97
2023-12-23T02:40:52.803Z,63.37
2023-12-23T02:41:52.872Z,60.86
2023-12-23T02:42:53.163Z,61.45
2023-12-23T02:43:53.007Z,62.01
2023-12-23T02:44:53.142Z,61.88
2023-12-23T02:45:53.070Z,61.38
2023-12-23T02:46:53.178Z,60.09
2023-12-23T02:47:53.285Z,60.77
2023-12-23T02:48:53.293Z,60.58
2023-12-23T02:49:53.434Z,61.26
2023-12-23T02:50:53.361Z,61.40
2023-12-23T02:51:53.450Z,60.46
2023-12-23T02:52:54.015Z,60.51
2023-12-23T02:53:53.532Z,61.23
2023-12-23T02:54:53.582Z,59.81
2023-12-23T02:55:53.628Z,61.35
2023-12-23T02:56:53.675Z,59.27
2023-12-23T02:57:53.707Z,59.56
2023-12-23T02:58:55.534Z,58.15
2023-12-23T02:59:53.876Z,58.44
2023-12-23T03:00:53.934Z,57.44
2023-12-23T03:01:53.974Z,59.88
2023-12-23T03:02:54.068Z,57.59
2023-12-23T03:03:54.070Z,58.09
2023-12-23T03:04:54.229Z,56.97
2023-12-23T03:05:54.229Z,57.60
2023-12-23T03:06:54.299Z,53.45
2023-12-23T03:07:54.399Z,56.48
2023-12-23T03:08:54.447Z,55.29
2023-12-23T03:09:54.465Z,53.28
2023-12-23T03:10:54.578Z,53.68
2023-12-23T03:11:54.592Z,54.51
2023-12-23T03:12:54.715Z,51.70
2023-12-23T03:13:54.734Z,51.87
2023-12-23T03:14:54.783Z,51.57
2023-12-23T03:15:54.832Z,50.72
2023-12-23T03:16:54.898Z,51.41
2023-12-23T03:17:55.078Z,50.81
2023-12-23T03:18:55.116Z,53.95
2023-12-23T03:19:55.114Z,52.89
2023-12-23T03:20:55.174Z,51.25
2023-12-23T03:21:55.206Z,54.41
2023-12-23T03:22:55.349Z,51.69
2023-12-23T03:23:55.352Z,51.38
2023-12-23T03:24:55.437Z,53.13
2023-12-23T03:25:55.514Z,52.38
2023-12-23T03:26:55.537Z,53.34
2023-12-23T03:27:55.640Z,55.14
2023-12-23T03:28:55.732Z,52.20
2023-12-23T03:29:55.814Z,50.13
2023-12-23T03:30:55.860Z,51.53
2023-12-23T03:31:55.863Z,54.73
2023-12-23T03:32:55.985Z,55.38
2023-12-23T03:33:55.987Z,54.31
2023-12-23T03:34:56.169Z,55.09
2023-12-23T03:35:56.120Z,52.16
2023-12-23T03:36:56.197Z,50.95
2023-12-23T03:37:56.292Z,51.23
2023-12-23T03:38:56.333Z,53.29
2023-12-23T03:39:56.444Z,52.41
2023-12-23T03:40:56.540Z,50.83
2023-12-23T03:41:56.557Z,50.21
2023-12-23T03:42:56.592Z,52.87
2023-12-23T03:43:56.682Z,50.62
2023-12-23T03:44:56.728Z,52.57
2023-12-23T03:45:56.822Z,51.40
2023-12-23T03:46:56.893Z,52.44
2023-12-23T03:47:56.969Z,52.70
2023-12-23T03:48:57.069Z,55.69
2023-12-23T03:49:57.057Z,54.22
2023-12-23T03:50:57.132Z,54.78
2023-12-23T03:51:57.192Z,51.63
2023-12-23T03:52:57.284Z,52.36
2023-12-23T03:53:57.314Z,55.31
2023-12-23T03:54:57.420Z,53.28
2023-12-23T03:55:57.548Z,55.41
2023-12-23T03:56:57.510Z,54.33
2023-12-23T03:57:57.619Z,57.30
2023-12-23T03:58:57.689Z,55.65
2023-12-23T03:59:57.726Z,55.18
2023-12-23T04:00:57.830Z,56.14
2023-12-23T04:01:57.847Z,55.69
2023-12-23T04:02:57.913Z,56.85
2023-12-23T04:03:58.096Z,55.86
2023-12-23T04:04:58.108Z,56.50
2023-12-23T04:05:58.139Z,56.91
2023-12-23T04:06:58.241Z,58.17
2023-12-23T04:07:58.316Z,55.98
2023-12-23T04:08:58.318Z,58.09
2023-12-23T04:09:58.385Z,54.25
2023-12-23T04:10:58.535Z,57.79
2023-12-23T04:11:58.553Z,55.69
2023-12-23T04:12:58.706Z,59.52
2023-12-23T04:13:58.762Z,58.95
2023-12-23T04:14:58.779Z,58.86
2023-12-23T04:15:58.800Z,58.26
2023-12-23T04:16:58.901Z,59.03
2023-12-23T04:17:59.090Z,57.70
2023-12-23T04:18:59.072Z,58.50
2023-12-23T04:19:59.145Z,55.42
2023-12-23T04:20:59.169Z,58.97
2023-12-23T04:21:59.233Z,56.97
2023-12-23T04:22:59.315Z,53.77
2023-12-23T04:23:59.364Z,57.33
2023-12-23T04:24:59.490Z,57.54
2023-12-23T04:25:59.521Z,58.20
2023-12-23T04:26:59.582Z,58.90
2023-12-23T04:27:59.621Z,58.15
2023-12-23T04:28:59.733Z,56.95
2023-12-23T04:30:06.938Z,50.00
2023-12-23T04:31:14.255Z,50.00
2023-12-23T04:32:14.158Z,50.00
2023-12-23T04:33:14.211Z,50.00
2023-12-23T04:34:14.197Z,50.00
2023-12-23T04:35:14.307Z,50.00
2023-12-23T04:36:14.123Z,50.12
2023-12-23T04:37:14.095Z,50.77
2023-12-23T04:38:14.142Z,52.49
2023-12-23T04:40:19.959Z,50.00
2023-12-23T04:41:20.016Z,50.00
2023-12-23T04:42:19.902Z,50.00
2023-12-23T04:43:19.907Z,50.00
2023-12-23T04:44:20.016Z,50.00
2023-12-23T04:45:19.908Z,52.21
2023-12-23T04:46:19.907Z,51.66
2023-12-23T04:47:19.910Z,51.05
2023-12-23T04:48:19.927Z,52.13
2023-12-23T04:49:19.859Z,53.00
2023-12-23T04:50:19.949Z,54.81
2023-12-23T04:51:19.844Z,56.73
2023-12-23T04:52:19.837Z,57.39
2023-12-23T04:53:19.964Z,55.90
2023-12-23T04:54:19.823Z,51.25
2023-12-23T04:55:19.801Z,54.59
2023-12-23T04:56:19.938Z,53.72
2023-12-23T04:57:19.776Z,49.93
2023-12-23T04:58:19.802Z,54.18
2023-12-23T04:59:19.961Z,52.35
2023-12-23T05:00:19.931Z,51.47
2023-12-23T05:01:19.987Z,52.27
2023-12-23T05:02:20.031Z,55.27
2023-12-23T05:03:20.170Z,51.14
2023-12-23T05:04:20.133Z,52.88
2023-12-23T05:05:20.217Z,54.98
2023-12-23T05:06:20.295Z,56.11
2023-12-23T05:07:20.278Z,54.91
2023-12-23T05:08:20.332Z,54.46
2023-12-23T05:09:20.337Z,56.81
2023-12-23T05:10:20.413Z,53.25
2023-12-23T05:11:20.536Z,53.93
2023-12-23T05:12:20.476Z,56.83
2023-12-23T05:13:20.532Z,57.10
2023-12-23T05:14:20.622Z,54.53
2023-12-23T05:15:20.641Z,56.70
2023-12-23T05:16:20.667Z,53.78
2023-12-23T05:17:20.960Z,55.44
2023-12-23T05:18:20.814Z,56.38
2023-12-23T05:19:20.801Z,52.74
2023-12-23T05:20:20.883Z,52.57
2023-12-23T05:21:20.953Z,51.71
2023-12-23T05:22:20.979Z,51.77
2023-12-23T05:23:21.065Z,55.36
2023-12-23T05:24:21.050Z,54.48
2023-12-23T05:25:21.148Z,53.26
2023-12-23T05:26:21.235Z,50.70
2023-12-23T05:27:21.224Z,51.82
2023-12-23T05:28:21.296Z,51.35
2023-12-23T05:29:21.494Z,51.60
2023-12-23T05:30:21.427Z,52.09
2023-12-23T05:31:21.456Z,54.23
2023-12-23T05:32:21.549Z,53.42
2023-12-23T05:33:21.635Z,53.54
2023-12-23T05:34:21.624Z,51.91
2023-12-23T05:35:21.793Z,50.49
2023-12-23T05:36:21.697Z,54.67
2023-12-23T05:37:21.729Z,53.95
2023-12-23T05:38:21.853Z,51.81
2023-12-23T05:39:21.840Z,54.41
2023-12-23T05:40:21.932Z,53.98
2023-12-23T05:41:22.011Z,53.20
2023-12-23T05:42:21.982Z,55.70
2023-12-23T05:43:22.028Z,55.71
2023-12-23T05:44:22.252Z,54.83
2023-12-23T05:45:22.171Z,53.42
2023-12-23T05:46:22.168Z,55.96
2023-12-23T05:47:22.289Z,58.73
2023-12-23T05:48:22.367Z,54.86
2023-12-23T05:49:24.433Z,53.85
2023-12-23T05:50:22.649Z,56.26
2023-12-23T05:51:22.616Z,55.61
2023-12-23T05:52:22.685Z,56.65
2023-12-23T05:53:22.746Z,54.33
2023-12-23T05:54:22.754Z,54.23
2023-12-23T05:55:22.910Z,55.76
2023-12-23T05:56:22.986Z,53.85
2023-12-23T05:57:22.953Z,55.41
2023-12-23T05:58:22.987Z,52.87
2023-12-23T05:59:23.064Z,53.72
2023-12-23T06:00:23.082Z,52.23
2023-12-23T06:01:23.180Z,55.42
2023-12-23T06:02:23.302Z,57.46
2023-12-23T06:03:23.332Z,53.98
2023-12-23T06:04:23.374Z,55.57
2023-12-23T06:05:23.583Z,57.05
2023-12-23T06:06:23.454Z,58.05
2023-12-23T06:07:23.481Z,57.63
2023-12-23T06:08:23.594Z,56.18
2023-12-23T06:09:23.521Z,58.44
2023-12-23T06:10:23.619Z,54.99
2023-12-23T06:11:23.702Z,55.84
2023-12-23T06:12:23.702Z,56.46
2023-12-23T06:13:23.732Z,57.53
2023-12-23T06:14:23.829Z,58.89
2023-12-23T06:15:23.858Z,55.26
2023-12-23T06:16:23.892Z,58.54
2023-12-23T06:17:24.167Z,58.50
2023-12-23T06:18:24.082Z,57.71
2023-12-23T06:19:24.118Z,58.11
2023-12-23T06:20:24.165Z,58.46
2023-12-23T06:21:24.196Z,58.13
2023-12-23T06:22:24.227Z,60.57
2023-12-23T06:23:24.319Z,56.01
2023-12-23T06:24:24.329Z,56.85
2023-12-23T06:25:24.384Z,56.84
2023-12-23T06:26:24.457Z,59.24
2023-12-23T06:27:24.462Z,56.68
2023-12-23T06:28:24.563Z,56.42
2023-12-23T06:29:24.805Z,57.20
2023-12-23T06:30:24.817Z,57.41
2023-12-23T06:31:24.741Z,57.69
2023-12-23T06:32:24.987Z,57.81
2023-12-23T06:33:24.889Z,60.93
2023-12-23T06:34:24.850Z,52.62
2023-12-23T06:35:25.168Z,54.41
2023-12-23T06:36:24.995Z,58.91
2023-12-23T06:37:25.020Z,56.76
2023-12-23T06:38:25.147Z,54.18
2023-12-23T06:39:25.106Z,54.33
2023-12-23T06:40:25.206Z,54.92
2023-12-23T06:41:25.276Z,53.45
2023-12-23T06:42:25.275Z,54.19
2023-12-23T06:43:45.187Z,54.26
2023-12-23T06:44:26.343Z,54.41
2023-12-23T06:45:25.662Z,54.95
2023-12-23T06:46:25.312Z,55.36
2023-12-23T06:47:25.416Z,58.23
2023-12-23T06:48:25.385Z,58.29
2023-12-23T06:49:25.453Z,59.50
2023-12-23T06:50:25.316Z,60.64
2023-12-23T06:51:25.225Z,61.55
2023-12-23T06:52:25.216Z,59.63
2023-12-23T06:53:25.301Z,60.76
2023-12-23T06:54:25.331Z,58.94
2023-12-23T06:55:25.439Z,57.78
2023-12-23T06:56:25.485Z,57.73
2023-12-23T06:57:25.492Z,59.09
2023-12-23T06:58:25.538Z,59.81
2023-12-23T06:59:25.656Z,57.84
2023-12-23T07:00:25.644Z,55.70
2023-12-23T07:01:25.708Z,55.19
2023-12-23T07:02:25.736Z,59.77
2023-12-23T07:03:25.888Z,55.37
2023-12-23T07:04:25.847Z,59.92
2023-12-23T07:05:25.988Z,57.02
2023-12-23T07:06:25.955Z,59.30
2023-12-23T07:07:26.010Z,60.27
2023-12-23T07:08:26.053Z,59.22
2023-12-23T07:09:26.115Z,59.78
2023-12-23T07:10:26.134Z,58.51
2023-12-23T07:11:26.254Z,58.97
2023-12-23T07:12:26.242Z,55.41
2023-12-23T07:13:26.290Z,59.87
2023-12-23T07:14:26.386Z,58.25
2023-12-23T07:15:26.394Z,57.78
2023-12-23T07:16:26.422Z,57.67
2023-12-23T07:17:37.976Z,59.03
2023-12-23T07:18:27.587Z,58.18
2023-12-23T07:19:26.568Z,59.11
2023-12-23T07:20:26.543Z,59.78
2023-12-23T07:21:26.465Z,59.24
2023-12-23T07:22:26.401Z,56.97
2023-12-23T07:23:26.455Z,57.49
2023-12-23T07:24:26.447Z,58.77
2023-12-23T07:25:26.390Z,58.66
2023-12-23T07:26:26.433Z,59.05
2023-12-23T07:27:26.502Z,55.98
2023-12-23T07:28:26.533Z,54.81
2023-12-23T07:29:26.660Z,56.30
2023-12-23T07:30:26.638Z,57.43
2023-12-23T07:31:26.677Z,57.99
2023-12-23T07:32:26.968Z,60.66
2023-12-23T07:33:26.841Z,56.56
2023-12-23T07:34:26.854Z,58.27
2023-12-23T07:35:27.008Z,59.08
2023-12-23T07:36:26.965Z,58.39
2023-12-23T07:37:27.028Z,61.01
2023-12-23T07:38:27.122Z,55.65
2023-12-23T07:39:27.116Z,57.51
2023-12-23T07:40:30.627Z,58.63
2023-12-23T07:41:27.256Z,58.64
2023-12-23T07:42:27.186Z,58.78
2023-12-23T07:43:27.142Z,58.57
2023-12-23T07:44:27.145Z,57.08
2023-12-23T07:45:27.117Z,56.49
2023-12-23T07:46:27.110Z,57.32
2023-12-23T07:47:27.155Z,57.58
2023-12-23T07:48:27.215Z,59.01
2023-12-23T07:49:27.072Z,57.91
2023-12-23T07:50:27.217Z,56.79
2023-12-23T07:51:27.082Z,58.53
2023-12-23T07:52:27.079Z,57.33
2023-12-23T07:53:27.147Z,58.85
2023-12-23T07:54:27.156Z,57.66
2023-12-23T07:55:27.035Z,59.29
2023-12-23T07:56:27.127Z,60.25
2023-12-23T07:57:27.022Z,59.32
2023-12-23T07:58:27.018Z,59.91
2023-12-23T07:59:27.118Z,57.62
2023-12-23T08:00:27.143Z,59.06
2023-12-23T08:01:27.211Z,58.58
2023-12-23T08:02:27.328Z,60.12
2023-12-23T08:03:27.290Z,60.01
2023-12-23T08:04:27.332Z,60.03
2023-12-23T08:05:27.447Z,61.03
2023-12-23T08:06:27.479Z,59.08
2023-12-23T08:07:27.497Z,62.02
2023-12-23T08:08:27.573Z,57.44
2023-12-23T08:09:27.585Z,62.41
2023-12-23T08:10:27.610Z,56.94
2023-12-23T08:11:27.728Z,60.44
2023-12-23T08:12:27.728Z,61.22
2023-12-23T08:13:27.781Z,61.68
2023-12-23T08:14:27.872Z,60.99
2023-12-23T08:15:27.878Z,60.06
2023-12-23T08:16:27.968Z,59.20
2023-12-23T08:17:28.092Z,61.33
2023-12-23T08:18:28.218Z,60.82
2023-12-23T08:19:28.286Z,61.34
2023-12-23T08:20:28.239Z,58.41
2023-12-23T08:21:28.199Z,60.60
2023-12-23T08:22:28.276Z,60.60
2023-12-23T08:23:28.397Z,62.15
2023-12-23T08:24:28.393Z,59.03
2023-12-23T08:25:28.422Z,60.47
2023-12-23T08:26:28.544Z,59.45
2023-12-23T08:27:28.546Z,60.68
2023-12-23T08:28:28.650Z,60.57
2023-12-23T08:29:28.724Z,63.17
2023-12-23T08:30:28.734Z,63.47
2023-12-23T08:31:28.774Z,62.26
2023-12-23T08:32:28.959Z,62.68
2023-12-23T08:33:28.949Z,63.73
2023-12-23T08:34:28.955Z,62.88
2023-12-23T08:35:29.138Z,62.44
2023-12-23T08:36:29.052Z,61.98
2023-12-23T08:37:29.131Z,64.06
2023-12-23T08:38:29.276Z,62.55
2023-12-23T08:39:29.250Z,62.24
2023-12-23T08:40:29.290Z,62.71
2023-12-23T08:41:29.370Z,62.70
2023-12-23T08:42:29.403Z,60.53
2023-12-23T08:43:29.483Z,61.61
2023-12-23T08:44:29.587Z,61.69
2023-12-23T08:45:29.599Z,60.92
2023-12-23T08:46:29.657Z,61.09
2023-12-23T08:47:29.812Z,62.15
2023-12-23T08:48:29.923Z,61.40
2023-12-23T08:49:29.826Z,59.45
2023-12-23T08:50:30.055Z,63.20
2023-12-23T08:51:29.897Z,63.27
2023-12-23T08:52:29.944Z,62.13
2023-12-23T08:53:30.097Z,62.72
2023-12-23T08:54:30.044Z,64.60
2023-12-23T08:55:30.092Z,62.44
2023-12-23T08:56:30.166Z,62.68
2023-12-23T08:57:30.199Z,64.08
2023-12-23T08:58:30.209Z,61.57
2023-12-23T08:59:30.315Z,65.29
2023-12-23T09:00:30.332Z,59.80
2023-12-23T09:01:30.412Z,64.88
2023-12-23T09:02:30.489Z,64.64
2023-12-23T09:03:30.587Z,64.37
2023-12-23T09:04:30.579Z,64.26
2023-12-23T09:05:30.735Z,64.27
2023-12-23T09:06:30.771Z,64.59
2023-12-23T09:07:33.060Z,62.51
2023-12-23T09:08:30.943Z,64.49
2023-12-23T09:09:30.878Z,64.02
2023-12-23T09:10:30.927Z,66.05
2023-12-23T09:11:31.041Z,63.24
2023-12-23T09:12:31.067Z,64.28
2023-12-23T09:13:31.071Z,63.77
2023-12-23T09:14:31.301Z,61.13
2023-12-23T09:15:31.228Z,63.08
2023-12-23T09:16:31.287Z,63.89
2023-12-23T09:17:34.317Z,63.50
2023-12-23T09:18:31.415Z,63.88
2023-12-23T09:19:31.361Z,63.66
2023-12-23T09:20:31.428Z,63.24
2023-12-23T09:21:31.290Z,65.75
2023-12-23T09:22:31.301Z,66.40
2023-12-23T09:23:31.323Z,66.78
2023-12-23T09:24:31.290Z,64.52
2023-12-23T09:25:31.322Z,66.67
2023-12-23T09:26:31.305Z,66.11
2023-12-23T09:27:31.257Z,66.74
2023-12-23T09:28:31.235Z,66.37
2023-12-23T09:29:31.245Z,62.86
2023-12-23T09:30:31.283Z,68.36
2023-12-23T09:31:31.261Z,63.84
2023-12-23T09:32:31.330Z,64.82
2023-12-23T09:33:31.306Z,63.85
2023-12-23T09:34:31.232Z,64.98
2023-12-23T09:35:31.278Z,66.88
2023-12-23T09:36:31.202Z,64.07
2023-12-23T09:37:31.216Z,66.20
2023-12-23T09:38:31.208Z,63.88
2023-12-23T09:39:31.205Z,66.44
2023-12-23T09:40:31.201Z,66.54
2023-12-23T09:41:31.193Z,66.94
2023-12-23T09:42:31.203Z,67.45
2023-12-23T09:43:31.189Z,66.72
2023-12-23T09:44:31.205Z,66.78
2023-12-23T09:45:31.158Z,68.24
2023-12-23T09:46:31.136Z,65.51
2023-12-23T09:47:31.294Z,69.13
2023-12-23T09:48:31.735Z,67.77
2023-12-23T09:49:31.160Z,68.04
2023-12-23T09:50:31.214Z,69.48
2023-12-23T09:51:31.132Z,67.87
2023-12-23T09:52:31.138Z,67.83
2023-12-23T09:53:31.258Z,69.26
2023-12-23T09:54:31.224Z,71.46
2023-12-23T09:55:31.319Z,69.02
2023-12-23T09:56:31.420Z,67.97
2023-12-23T09:57:31.415Z,68.15
2023-12-23T09:58:31.491Z,68.70
2023-12-23T09:59:31.571Z,69.99
2023-12-23T10:00:31.634Z,68.63
2023-12-23T10:01:31.660Z,70.66
2023-12-23T10:02:31.743Z,68.92
2023-12-23T10:03:31.806Z,69.15
2023-12-23T10:04:31.841Z,69.27
2023-12-23T10:05:31.995Z,68.15
2023-12-23T10:06:32.116Z,67.68
2023-12-23T10:07:31.999Z,66.49
2023-12-23T10:08:32.133Z,67.17
2023-12-23T10:09:32.123Z,67.30
2023-12-23T10:10:32.153Z,67.10
2023-12-23T10:11:32.272Z,67.42
2023-12-23T10:12:32.269Z,69.15
2023-12-23T10:13:32.323Z,67.56
2023-12-23T10:14:32.386Z,68.26
2023-12-23T10:15:32.433Z,68.71
2023-12-23T10:16:32.494Z,67.23
2023-12-23T10:17:32.663Z,69.29
2023-12-23T10:18:32.652Z,69.36
2023-12-23T10:19:32.640Z,67.80
2023-12-23T10:20:32.732Z,71.31
2023-12-23T10:21:32.745Z,68.13
2023-12-23T10:22:32.816Z,68.29
2023-12-23T10:23:32.949Z,72.44
2023-12-23T10:24:32.938Z,68.95
2023-12-23T10:25:33.114Z,71.26
2023-12-23T10:26:33.055Z,70.06
2023-12-23T10:27:33.159Z,71.13
2023-12-23T10:28:33.238Z,70.70
2023-12-23T10:29:33.229Z,69.37
2023-12-23T10:30:33.289Z,67.71
2023-12-23T10:31:33.315Z,71.60
2023-12-23T10:32:33.415Z,69.04
2023-12-23T10:33:33.495Z,70.59
2023-12-23T10:34:33.489Z,68.96
2023-12-23T10:35:33.565Z,69.73
2023-12-23T10:36:33.603Z,68.05
2023-12-23T10:37:33.679Z,68.80
2023-12-23T10:38:33.739Z,69.37
2023-12-23T10:39:33.769Z,68.48
2023-12-23T10:40:33.806Z,67.99
2023-12-23T10:41:33.864Z,67.86
2023-12-23T10:42:33.955Z,67.35
2023-12-23T10:43:33.967Z,69.74
2023-12-23T10:44:34.032Z,69.19
2023-12-23T10:45:36.427Z,71.72
2023-12-23T10:46:34.093Z,70.25
2023-12-23T10:47:34.373Z,70.05
2023-12-23T10:48:34.212Z,70.23
2023-12-23T10:49:34.056Z,69.74
2023-12-23T10:50:34.081Z,68.41
2023-12-23T10:51:34.059Z,70.07
2023-12-23T10:52:34.046Z,68.78
2023-12-23T10:53:34.140Z,68.64
2023-12-23T10:54:34.064Z,65.82
2023-12-23T10:55:34.029Z,68.04
2023-12-23T10:56:34.134Z,66.69
2023-12-23T10:57:34.055Z,65.95
2023-12-23T10:58:34.019Z,67.58
2023-12-23T10:59:34.044Z,66.35
2023-12-23T11:00:34.114Z,67.78
2023-12-23T11:01:34.052Z,65.74
2023-12-23T11:02:34.018Z,68.42
2023-12-23T11:03:34.048Z,67.05
2023-12-23T11:04:34.020Z,66.00
2023-12-23T11:05:34.143Z,69.40
2023-12-23T11:06:34.040Z,67.49
2023-12-23T11:07:34.031Z,67.81
2023-12-23T11:08:34.168Z,68.17
2023-12-23T11:09:34.002Z,69.33
2023-12-23T11:10:33.967Z,69.18
2023-12-23T11:11:33.996Z,69.09
2023-12-23T11:12:34.024Z,67.43
2023-12-23T11:13:33.979Z,67.11
2023-12-23T11:14:33.960Z,65.91
2023-12-23T11:15:33.985Z,65.71
2023-12-23T11:16:33.948Z,65.20
2023-12-23T11:17:34.036Z,65.12
2023-12-23T11:18:33.987Z,66.73
2023-12-23T11:19:33.951Z,64.72
2023-12-23T11:20:34.006Z,66.95
2023-12-23T11:21:34.000Z,66.05
2023-12-23T11:22:34.057Z,67.01
2023-12-23T11:23:34.156Z,65.81
2023-12-23T11:24:34.174Z,65.37
2023-12-23T11:25:34.212Z,65.83
2023-12-23T11:26:34.343Z,65.96
2023-12-23T11:27:34.339Z,65.05
2023-12-23T11:28:34.440Z,66.35
2023-12-23T11:29:34.509Z,62.21
2023-12-23T11:30:34.512Z,66.00
2023-12-23T11:31:34.726Z,66.76
2023-12-23T11:32:34.779Z,65.27
2023-12-23T11:33:34.854Z,64.21
2023-12-23T11:34:34.777Z,62.97
2023-12-23T11:35:34.911Z,63.20
2023-12-23T11:36:34.887Z,62.15
2023-12-23T11:37:34.922Z,62.32
2023-12-23T11:38:35.059Z,62.93
2023-12-23T11:39:35.009Z,62.50
2023-12-23T11:40:35.086Z,62.01
2023-12-23T11:41:36.746Z,61.82
2023-12-23T11:42:35.192Z,60.91
2023-12-23T11:43:35.245Z,62.98
2023-12-23T11:44:35.379Z,61.28
2023-12-23T11:45:35.349Z,62.57
2023-12-23T11:46:35.426Z,62.35
2023-12-23T11:47:35.509Z,63.70
2023-12-23T11:48:35.682Z,63.15
2023-12-23T11:49:35.602Z,64.33
2023-12-23T11:50:35.723Z,63.88
2023-12-23T11:51:35.728Z,64.69
2023-12-23T11:52:35.817Z,65.18
2023-12-23T11:53:35.933Z,63.70
2023-12-23T11:54:35.869Z,65.70
2023-12-23T11:55:35.940Z,65.18
2023-12-23T11:56:36.030Z,65.91
2023-12-23T11:57:36.049Z,68.28
2023-12-23T11:58:36.101Z,67.69
2023-12-23T11:59:37.736Z,69.29
2023-12-23T12:00:36.244Z,67.30
2023-12-23T12:01:36.343Z,68.91
2023-12-23T12:02:36.355Z,68.76
2023-12-23T12:03:36.410Z,64.68
2023-12-23T12:04:36.480Z,68.49
2023-12-23T12:05:36.541Z,66.36
2023-12-23T12:06:36.595Z,65.00
2023-12-23T12:07:36.594Z,62.50
2023-12-23T12:08:36.696Z,63.57
2023-12-23T12:09:36.749Z,61.92
2023-12-23T12:10:36.774Z,61.49
2023-12-23T12:11:37.322Z,63.14
2023-12-23T12:12:36.928Z,61.13
2023-12-23T12:13:36.935Z,60.47
2023-12-23T12:14:37.054Z,61.69
2023-12-23T12:15:37.066Z,60.54
2023-12-23T12:16:37.102Z,61.17
2023-12-23T12:17:37.304Z,62.43
2023-12-23T12:18:37.322Z,61.75
2023-12-23T12:19:37.287Z,62.09
2023-12-23T12:20:37.324Z,60.82
2023-12-23T12:21:37.388Z,60.80
2023-12-23T12:22:37.464Z,61.70
2023-12-23T12:23:38.417Z,59.09
2023-12-23T12:24:37.575Z,61.08
2023-12-23T12:25:37.665Z,55.04
2023-12-23T12:26:37.728Z,57.48
2023-12-23T12:27:37.750Z,56.17
2023-12-23T12:28:37.792Z,57.06
2023-12-23T12:29:37.881Z,56.35
2023-12-23T12:30:37.947Z,57.69
2023-12-23T12:31:37.974Z,55.62
2023-12-23T12:32:38.085Z,56.22
2023-12-23T12:33:38.143Z,55.45
2023-12-23T12:34:38.170Z,54.56
2023-12-23T12:35:38.227Z,55.34
2023-12-23T12:36:38.302Z,56.45
2023-12-23T12:37:38.353Z,54.42
2023-12-23T12:38:38.461Z,54.22
2023-12-23T12:39:38.457Z,52.74
2023-12-23T12:40:38.526Z,53.13
2023-12-23T12:41:38.600Z,52.35
2023-12-23T12:42:38.634Z,51.30
2023-12-23T12:43:38.697Z,53.17
2023-12-23T12:44:38.727Z,51.79
2023-12-23T12:45:42.077Z,51.62
2023-12-23T12:46:38.819Z,51.70
2023-12-23T12:47:38.934Z,51.89
2023-12-23T12:48:38.816Z,51.82
2023-12-23T12:49:40.675Z,51.96
2023-12-23T12:50:38.800Z,51.78
2023-12-23T12:51:38.745Z,51.79
2023-12-23T12:52:38.727Z,51.92
2023-12-23T12:53:38.765Z,53.46
2023-12-23T12:54:38.687Z,54.26